Alfred, Maine
Current Conditions -  °F | °C
As of 10:35 PM on Friday 24 Oct 2014 (Local Time) from KSFM Reporting Station
Overcast Overcast  
Wind Chill: 48°   Ceiling: 3500
Heat Index: 48°   Visibility: 10mi
Dew Point: 41°   Wind: 3mph
Humidity: 76%   Direction: 300°WNW
Pressure: 29.73"   Gusts: NA
Location:  43.48°N, 70.72°W
Report Text: KSFM 250235Z AUTO 30003KT 10SM BKN035 OVC041 09/05 A2973 RMK AO1
Loading
Personal Weather Stations






























Interactive Weather Map
Tropical Storm Tracking
New forecast layout! Learn more

10-Day Weather Forecast

Advertisements
Track Severe Weather on mobile